Time;durP1;ratioP1;P1;durP2;ratioP2;P2;SDS_P1;SDS_P2;PMS_P1;PMS_P2;Temp;Humidity;BMP_temperature;BMP_pressure;BME280_temperature;BME280_humidity;BME280_pressure;Samples;Min_cycle;Max_cycle;Signal;HPM_P1;HPM_P2
2022/09/15 00:00:44;;;;;;;39.95;21.50;;;;;;;;;;4993353;28;20085;-62
2022/09/15 00:03:10;;;;;;;36.92;20.13;;;;;;;;;;5001915;28;20026;-62
2022/09/15 00:05:36;;;;;;;37.13;21.58;;;;;;;;;;5013024;28;20022;-63
2022/09/15 00:08:02;;;;;;;42.15;22.40;;;;;;;;;;5012779;28;20068;-63
2022/09/15 00:10:29;;;;;;;42.42;23.40;;;;;;;;;;5012795;28;20042;-63
2022/09/15 00:12:55;;;;;;;42.75;22.35;;;;;;;;;;5012983;28;20462;-63
2022/09/15 00:15:22;;;;;;;46.83;23.73;;;;;;;;;;5012135;28;20037;-63
2022/09/15 00:17:49;;;;;;;45.67;24.20;;;;;;;;;;5012871;28;20108;-62
2022/09/15 00:20:15;;;;;;;59.67;24.13;;;;;;;;;;5012516;28;20464;-62
2022/09/15 00:22:42;;;;;;;43.97;22.67;;;;;;;;;;5011498;28;20065;-62
2022/09/15 00:25:09;;;;;;;38.40;22.13;;;;;;;;;;5025758;28;20037;-62
2022/09/15 00:27:35;;;;;;;40.25;23.27;;;;;;;;;;5032220;28;20079;-63
2022/09/15 00:30:01;;;;;;;40.75;22.98;;;;;;;;;;5032290;28;20029;-62
2022/09/15 00:32:27;;;;;;;39.17;20.63;;;;;;;;;;5027218;28;20030;-63
2022/09/15 00:34:53;;;;;;;38.33;21.42;;;;;;;;;;5012564;28;20394;-62
2022/09/15 00:37:20;;;;;;;42.90;20.20;;;;;;;;;;5012292;28;20505;-62
2022/09/15 00:39:46;;;;;;;42.50;20.25;;;;;;;;;;5012545;28;20483;-62
2022/09/15 00:42:16;;;;;;;36.75;20.60;;;;;;;;;;5027962;28;20053;-63
2022/09/15 00:44:47;;;;;;;36.97;20.17;;;;;;;;;;5032067;28;20025;-63
2022/09/15 00:47:13;;;;;;;37.63;20.10;;;;;;;;;;5031966;28;20029;-62
2022/09/15 00:49:40;;;;;;;36.00;20.23;;;;;;;;;;5032221;28;20104;-62
2022/09/15 00:52:08;;;;;;;42.72;20.13;;;;;;;;;;5016507;28;20073;-62
2022/09/15 00:54:36;;;;;;;30.70;17.52;;;;;;;;;;5012354;28;20101;-63
2022/09/15 00:57:05;;;;;;;30.95;17.80;;;;;;;;;;5012049;28;20038;-62
2022/09/15 00:59:32;;;;;;;29.70;17.77;;;;;;;;;;5012147;28;20057;-62
2022/09/15 01:02:14;;;;;;;31.60;16.00;;;;;;;;;;5012510;28;20029;-64
2022/09/15 01:04:40;;;;;;;30.85;18.95;;;;;;;;;;5012305;28;20030;-62
2022/09/15 01:07:08;;;;;;;33.92;19.55;;;;;;;;;;5012395;28;20089;-62
2022/09/15 01:09:41;;;;;;;33.80;19.85;;;;;;;;;;5011859;28;20502;-63
2022/09/15 01:12:07;;;;;;;33.95;19.20;;;;;;;;;;5026549;28;20030;-62
2022/09/15 01:14:34;;;;;;;33.75;20.83;;;;;;;;;;5031673;28;20104;-62
2022/09/15 01:17:05;;;;;;;32.58;18.55;;;;;;;;;;5030733;28;20111;-62
2022/09/15 01:19:50;;;;;;;29.13;18.20;;;;;;;;;;5023769;28;20117;-62
2022/09/15 01:22:22;;;;;;;34.40;19.10;;;;;;;;;;5011875;28;20057;-62
2022/09/15 01:24:54;;;;;;;36.03;19.23;;;;;;;;;;5012096;28;20364;-63
2022/09/15 01:27:27;;;;;;;37.65;18.98;;;;;;;;;;5011597;28;20026;-63
2022/09/15 01:30:01;;;;;;;30.98;18.58;;;;;;;;;;5021621;28;20030;-62
2022/09/15 01:33:05;;;;;;;32.92;18.27;;;;;;;;;;5031421;28;20059;-62
2022/09/15 01:35:49;;;;;;;27.75;16.88;;;;;;;;;;5031664;28;20489;-62
2022/09/15 01:38:18;;;;;;;28.33;16.77;;;;;;;;;;5021303;28;20034;-62
2022/09/15 01:40:49;;;;;;;29.40;17.90;;;;;;;;;;5011733;28;20434;-62
2022/09/15 01:43:17;;;;;;;26.65;16.23;;;;;;;;;;5011688;28;20029;-62
2022/09/15 01:45:44;;;;;;;30.88;16.85;;;;;;;;;;5011777;28;20061;-62
2022/09/15 01:48:11;;;;;;;31.25;19.08;;;;;;;;;;5020458;28;20026;-62
2022/09/15 01:50:42;;;;;;;31.23;17.73;;;;;;;;;;5031801;28;20096;-62
2022/09/15 01:53:11;;;;;;;33.25;17.20;;;;;;;;;;5031728;28;20481;-62
2022/09/15 01:55:41;;;;;;;31.95;17.83;;;;;;;;;;5032994;28;20132;-62
2022/09/15 01:58:08;;;;;;;29.08;16.95;;;;;;;;;;5026525;28;20018;-62
2022/09/15 02:00:36;;;;;;;25.45;15.52;;;;;;;;;;5015174;28;20536;-62
2022/09/15 02:03:07;;;;;;;31.55;15.75;;;;;;;;;;5015175;28;20120;-62
2022/09/15 02:05:39;;;;;;;28.75;15.55;;;;;;;;;;5015158;28;20034;-62
2022/09/15 02:08:24;;;;;;;27.10;16.53;;;;;;;;;;5015184;28;20034;-63
2022/09/15 02:10:59;;;;;;;24.50;15.38;;;;;;;;;;5014864;28;20493;-62
2022/09/15 02:13:32;;;;;;;25.20;15.23;;;;;;;;;;5014888;28;20029;-62
2022/09/15 02:16:01;;;;;;;28.55;16.42;;;;;;;;;;5018773;28;20457;-62
2022/09/15 02:18:37;;;;;;;28.42;15.50;;;;;;;;;;5034660;28;20092;-62
2022/09/15 02:21:08;;;;;;;33.50;16.25;;;;;;;;;;5050128;28;20033;-63
2022/09/15 02:23:37;;;;;;;27.98;16.08;;;;;;;;;;5034440;28;20029;-63
2022/09/15 02:26:13;;;;;;;29.13;16.90;;;;;;;;;;5016186;28;20033;-63
2022/09/15 02:28:39;;;;;;;26.95;14.98;;;;;;;;;;5014661;28;20474;-63
2022/09/15 02:31:07;;;;;;;29.83;15.70;;;;;;;;;;5014872;28;20025;-63
2022/09/15 02:33:43;;;;;;;30.42;15.93;;;;;;;;;;5014375;28;20045;-63
2022/09/15 02:36:10;;;;;;;32.35;15.48;;;;;;;;;;5032494;28;20042;-63
2022/09/15 02:38:38;;;;;;;25.08;14.48;;;;;;;;;;5032735;28;20037;-63
2022/09/15 02:41:04;;;;;;;22.85;14.40;;;;;;;;;;5030201;28;20458;-63
2022/09/15 02:43:31;;;;;;;23.52;14.13;;;;;;;;;;5010227;28;20022;-63
2022/09/15 02:45:57;;;;;;;25.58;15.02;;;;;;;;;;5011649;28;20022;-63
2022/09/15 02:48:24;;;;;;;27.35;14.65;;;;;;;;;;5004562;28;20114;-63
2022/09/15 02:50:50;;;;;;;24.50;13.63;;;;;;;;;;5010716;28;20120;-63
2022/09/15 02:53:16;;;;;;;22.50;13.50;;;;;;;;;;5009560;28;20029;-63
2022/09/15 02:55:42;;;;;;;20.50;12.73;;;;;;;;;;5012359;28;20067;-63
2022/09/15 02:58:08;;;;;;;19.70;12.00;;;;;;;;;;5012206;28;20434;-63
2022/09/15 03:00:37;;;;;;;21.45;11.48;;;;;;;;;;5000889;28;20034;-63
2022/09/15 03:03:03;;;;;;;21.10;12.05;;;;;;;;;;5012631;28;20071;-63
2022/09/15 03:05:29;;;;;;;20.45;11.00;;;;;;;;;;5012254;28;20022;-63
2022/09/15 03:07:56;;;;;;;22.45;13.43;;;;;;;;;;5011289;28;20038;-63
2022/09/15 03:10:23;;;;;;;23.23;13.65;;;;;;;;;;5012605;28;20789;-63
2022/09/15 03:12:51;;;;;;;23.23;13.73;;;;;;;;;;5013029;28;20030;-63
2022/09/15 03:15:19;;;;;;;22.13;14.57;;;;;;;;;;5012761;28;20038;-63
2022/09/15 03:17:45;;;;;;;22.75;14.10;;;;;;;;;;5012107;28;20549;-63
2022/09/15 03:20:14;;;;;;;30.00;14.40;;;;;;;;;;5013495;28;20068;-63
2022/09/15 03:22:40;;;;;;;27.45;13.65;;;;;;;;;;5008411;28;20109;-63
2022/09/15 03:25:06;;;;;;;19.45;13.65;;;;;;;;;;5007984;28;20080;-63
2022/09/15 03:27:33;;;;;;;19.55;10.90;;;;;;;;;;5007110;28;20030;-63
2022/09/15 03:30:00;;;;;;;27.20;12.90;;;;;;;;;;5013552;28;20092;-63
2022/09/15 03:32:26;;;;;;;27.73;10.40;;;;;;;;;;5013654;28;20467;-63
2022/09/15 03:34:52;;;;;;;18.73;8.65;;;;;;;;;;5013966;28;20030;-63
2022/09/15 03:37:18;;;;;;;17.50;7.35;;;;;;;;;;5013965;28;20038;-63
2022/09/15 03:39:45;;;;;;;18.80;7.93;;;;;;;;;;5012194;28;20053;-63
2022/09/15 03:42:11;;;;;;;18.08;7.57;;;;;;;;;;5012543;28;20037;-63
2022/09/15 03:44:37;;;;;;;14.23;7.63;;;;;;;;;;5013869;28;20034;-63
2022/09/15 03:47:03;;;;;;;18.95;8.30;;;;;;;;;;5006207;28;20058;-63
2022/09/15 03:49:29;;;;;;;20.27;7.90;;;;;;;;;;4994265;28;20113;-63
2022/09/15 03:51:57;;;;;;;19.08;7.20;;;;;;;;;;4994082;28;20466;-63
2022/09/15 03:54:24;;;;;;;17.58;7.22;;;;;;;;;;4998491;28;20048;-63
2022/09/15 03:56:50;;;;;;;16.02;6.55;;;;;;;;;;5013079;28;20153;-63
2022/09/15 03:59:20;;;;;;;16.67;7.82;;;;;;;;;;5014014;28;20083;-63
2022/09/15 04:01:47;;;;;;;16.55;8.52;;;;;;;;;;5009547;28;20030;-63
2022/09/15 04:04:13;;;;;;;14.10;7.63;;;;;;;;;;4996352;28;20030;-63
2022/09/15 04:06:40;;;;;;;24.70;8.52;;;;;;;;;;5004282;28;20144;-63
2022/09/15 04:09:06;;;;;;;30.70;8.32;;;;;;;;;;5013357;28;20493;-63
2022/09/15 04:11:33;;;;;;;20.20;8.10;;;;;;;;;;5010815;28;20032;-63
2022/09/15 04:13:59;;;;;;;15.98;7.15;;;;;;;;;;5012614;28;20494;-63
2022/09/15 04:16:27;;;;;;;15.60;7.43;;;;;;;;;;5012608;28;20034;-63
2022/09/15 04:18:54;;;;;;;14.10;6.55;;;;;;;;;;5011026;28;20034;-63
2022/09/15 04:21:21;;;;;;;12.82;7.05;;;;;;;;;;5012201;28;20053;-63
2022/09/15 04:23:48;;;;;;;16.67;7.65;;;;;;;;;;5013167;28;20411;-63
2022/09/15 04:26:21;;;;;;;22.85;7.38;;;;;;;;;;5013242;28;20053;-63
2022/09/15 04:28:47;;;;;;;16.58;7.35;;;;;;;;;;5010967;28;20038;-63
2022/09/15 04:31:14;;;;;;;14.40;6.90;;;;;;;;;;5012244;28;20056;-63
2022/09/15 04:33:40;;;;;;;21.98;7.65;;;;;;;;;;5011426;28;20030;-63
2022/09/15 04:36:08;;;;;;;15.43;6.22;;;;;;;;;;5010928;28;20040;-63
2022/09/15 04:38:34;;;;;;;15.88;6.47;;;;;;;;;;5006203;28;20034;-63
2022/09/15 04:41:01;;;;;;;13.90;6.50;;;;;;;;;;5010485;28;20022;-63
2022/09/15 04:43:27;;;;;;;14.55;6.50;;;;;;;;;;5010602;28;20029;-63
2022/09/15 04:45:54;;;;;;;17.30;6.40;;;;;;;;;;5001031;28;20404;-63
2022/09/15 04:48:20;;;;;;;18.05;6.07;;;;;;;;;;5004251;28;21121;-63
2022/09/15 04:50:47;;;;;;;18.85;5.72;;;;;;;;;;4994910;28;20029;-63
2022/09/15 04:53:13;;;;;;;20.15;6.82;;;;;;;;;;5007332;28;20463;-63
2022/09/15 04:55:39;;;;;;;23.48;5.72;;;;;;;;;;5005420;28;20032;-63
2022/09/15 04:58:06;;;;;;;22.63;6.20;;;;;;;;;;5019415;28;20490;-63
2022/09/15 05:00:34;;;;;;;19.67;6.32;;;;;;;;;;5003388;28;20487;-63
2022/09/15 05:03:00;;;;;;;13.93;6.40;;;;;;;;;;5007653;28;20518;-63
2022/09/15 05:05:26;;;;;;;19.63;6.32;;;;;;;;;;5012197;28;20073;-63
2022/09/15 05:07:52;;;;;;;9.77;4.80;;;;;;;;;;5009738;28;20026;-63
2022/09/15 05:10:19;;;;;;;18.80;5.57;;;;;;;;;;5010072;28;20050;-63
2022/09/15 05:12:45;;;;;;;17.02;5.40;;;;;;;;;;5012964;28;20080;-63
2022/09/15 05:15:12;;;;;;;15.38;5.40;;;;;;;;;;5010308;28;20437;-63
2022/09/15 05:17:38;;;;;;;10.88;5.72;;;;;;;;;;5008489;28;20501;-63
2022/09/15 05:20:04;;;;;;;16.63;4.68;;;;;;;;;;5005603;28;20030;-63
2022/09/15 05:22:31;;;;;;;15.25;5.60;;;;;;;;;;5011311;28;20030;-63
2022/09/15 05:24:57;;;;;;;23.60;5.20;;;;;;;;;;5008970;28;20110;-63
2022/09/15 05:27:23;;;;;;;18.90;5.45;;;;;;;;;;4992088;28;20026;-63
2022/09/15 05:29:49;;;;;;;23.90;5.60;;;;;;;;;;5001682;28;20506;-63
2022/09/15 05:32:15;;;;;;;13.38;5.32;;;;;;;;;;5013468;28;20109;-63
2022/09/15 05:34:41;;;;;;;13.48;4.97;;;;;;;;;;5013529;28;20036;-63
2022/09/15 05:37:09;;;;;;;22.40;5.47;;;;;;;;;;5012026;28;20032;-63
2022/09/15 05:39:35;;;;;;;20.60;5.03;;;;;;;;;;5013735;28;20061;-63
2022/09/15 05:42:02;;;;;;;18.00;6.18;;;;;;;;;;5006532;28;20030;-63
2022/09/15 05:44:28;;;;;;;18.58;7.45;;;;;;;;;;5009476;28;20037;-63
2022/09/15 05:46:54;;;;;;;19.23;7.97;;;;;;;;;;5008038;28;20042;-63
2022/09/15 05:49:20;;;;;;;15.60;7.30;;;;;;;;;;5006964;28;20026;-63
2022/09/15 05:51:46;;;;;;;14.13;6.50;;;;;;;;;;5010784;28;20030;-63
2022/09/15 05:54:12;;;;;;;20.42;7.25;;;;;;;;;;5009064;28;20046;-63
2022/09/15 05:56:39;;;;;;;22.50;7.50;;;;;;;;;;5011169;28;20037;-63
2022/09/15 05:59:05;;;;;;;23.33;7.45;;;;;;;;;;5010390;28;20072;-63
2022/09/15 06:01:31;;;;;;;22.00;7.68;;;;;;;;;;5010322;28;20037;-63
2022/09/15 06:03:58;;;;;;;17.20;7.07;;;;;;;;;;5010799;28;20382;-63
2022/09/15 06:06:24;;;;;;;19.15;6.25;;;;;;;;;;5011681;28;20026;-63
2022/09/15 06:08:54;;;;;;;23.67;6.38;;;;;;;;;;5009430;28;20033;-63
2022/09/15 06:11:25;;;;;;;18.30;6.53;;;;;;;;;;5012218;28;20499;-63
2022/09/15 06:13:51;;;;;;;18.65;6.00;;;;;;;;;;5010753;28;20124;-63
2022/09/15 06:16:19;;;;;;;23.00;6.65;;;;;;;;;;5006872;28;20068;-63
2022/09/15 06:18:46;;;;;;;15.30;6.50;;;;;;;;;;5010006;28;20036;-63
2022/09/15 06:21:13;;;;;;;18.67;7.18;;;;;;;;;;5013897;28;20026;-62
2022/09/15 06:23:39;;;;;;;18.02;6.28;;;;;;;;;;5014174;28;20033;-63
2022/09/15 06:26:17;;;;;;;22.05;6.22;;;;;;;;;;5013779;28;20371;-63
2022/09/15 06:28:48;;;;;;;16.08;5.93;;;;;;;;;;5014269;28;20437;-63
2022/09/15 06:31:14;;;;;;;18.92;5.65;;;;;;;;;;5013683;28;20503;-63
2022/09/15 06:33:41;;;;;;;17.55;5.70;;;;;;;;;;5014182;28;20030;-63
2022/09/15 06:36:09;;;;;;;15.50;5.30;;;;;;;;;;5013710;28;20034;-63
2022/09/15 06:38:35;;;;;;;13.98;5.53;;;;;;;;;;5014393;28;20470;-63
2022/09/15 06:41:01;;;;;;;16.05;5.40;;;;;;;;;;5013461;28;20030;-63
2022/09/15 06:43:27;;;;;;;18.25;5.80;;;;;;;;;;5014125;28;20032;-63
2022/09/15 06:46:01;;;;;;;10.38;4.68;;;;;;;;;;5013520;28;20109;-63
2022/09/15 06:48:27;;;;;;;8.82;4.30;;;;;;;;;;5013722;28;20034;-63
2022/09/15 06:50:54;;;;;;;17.42;5.45;;;;;;;;;;5013515;28;20033;-63
2022/09/15 06:53:20;;;;;;;11.95;4.72;;;;;;;;;;5013529;28;20425;-63
2022/09/15 06:55:46;;;;;;;16.25;4.80;;;;;;;;;;5013798;28;20041;-63
2022/09/15 06:58:12;;;;;;;16.40;5.18;;;;;;;;;;5013550;28;20131;-63
2022/09/15 07:00:38;;;;;;;9.07;4.25;;;;;;;;;;5013184;28;20018;-63
2022/09/15 07:03:04;;;;;;;11.55;4.93;;;;;;;;;;5013263;28;20375;-67
2022/09/15 07:05:30;;;;;;;14.63;5.13;;;;;;;;;;5013317;28;20026;-67
2022/09/15 07:07:57;;;;;;;12.05;4.70;;;;;;;;;;5013426;28;20046;-67
2022/09/15 07:10:23;;;;;;;14.27;5.03;;;;;;;;;;5012965;28;20069;-67
2022/09/15 07:12:49;;;;;;;12.48;4.60;;;;;;;;;;5013346;28;20034;-67
2022/09/15 07:15:15;;;;;;;8.60;4.82;;;;;;;;;;5025431;28;20018;-67
2022/09/15 07:17:41;;;;;;;13.70;5.47;;;;;;;;;;5007416;28;20030;-67
2022/09/15 07:20:08;;;;;;;13.75;5.30;;;;;;;;;;5000949;28;20022;-67
2022/09/15 07:22:34;;;;;;;13.18;4.82;;;;;;;;;;5008754;28;20478;-67
2022/09/15 07:25:00;;;;;;;10.57;4.53;;;;;;;;;;5003153;28;20026;-67
2022/09/15 07:27:30;;;;;;;15.82;4.53;;;;;;;;;;5006166;28;20026;-67
2022/09/15 07:29:57;;;;;;;15.32;4.60;;;;;;;;;;5009807;28;20029;-67
2022/09/15 07:32:23;;;;;;;13.48;4.45;;;;;;;;;;5010394;28;20036;-67
2022/09/15 07:34:50;;;;;;;10.77;4.60;;;;;;;;;;5008868;28;20040;-67
2022/09/15 07:37:16;;;;;;;10.57;4.80;;;;;;;;;;5009575;28;20457;-67
2022/09/15 07:39:43;;;;;;;16.73;5.03;;;;;;;;;;5005693;28;20080;-67
2022/09/15 07:42:09;;;;;;;12.35;5.50;;;;;;;;;;5007983;28;20049;-67
2022/09/15 07:44:35;;;;;;;11.02;4.40;;;;;;;;;;5011208;28;20347;-67
2022/09/15 07:47:01;;;;;;;18.55;5.00;;;;;;;;;;5003222;28;20022;-67
2022/09/15 07:49:27;;;;;;;12.07;4.82;;;;;;;;;;5005671;28;20017;-67
2022/09/15 07:51:53;;;;;;;17.02;4.53;;;;;;;;;;5006468;28;20033;-67
2022/09/15 07:54:19;;;;;;;18.45;5.15;;;;;;;;;;5007712;28;20367;-67
2022/09/15 07:56:46;;;;;;;12.52;5.10;;;;;;;;;;5003675;28;20033;-67
2022/09/15 07:59:12;;;;;;;12.50;4.63;;;;;;;;;;5001536;28;20494;-67
2022/09/15 08:01:38;;;;;;;17.65;5.18;;;;;;;;;;5000666;28;20034;-67
2022/09/15 08:04:04;;;;;;;11.95;5.18;;;;;;;;;;5007623;28;20030;-67
2022/09/15 08:06:30;;;;;;;14.80;4.93;;;;;;;;;;5005516;28;20382;-67
2022/09/15 08:08:57;;;;;;;15.57;5.50;;;;;;;;;;5023202;28;20111;-67
2022/09/15 08:11:23;;;;;;;14.65;5.72;;;;;;;;;;4997258;28;20033;-67
2022/09/15 08:13:51;;;;;;;15.82;6.85;;;;;;;;;;5004542;28;20038;-67
2022/09/15 08:16:18;;;;;;;16.45;6.20;;;;;;;;;;5013773;28;20513;-67
2022/09/15 08:18:44;;;;;;;21.95;7.30;;;;;;;;;;5013078;28;20034;-67
2022/09/15 08:21:12;;;;;;;20.08;6.95;;;;;;;;;;5005616;28;20036;-67
2022/09/15 08:23:39;;;;;;;17.73;7.22;;;;;;;;;;5010660;28;20026;-66
2022/09/15 08:26:06;;;;;;;14.18;6.72;;;;;;;;;;5005836;28;20348;-66
2022/09/15 08:28:32;;;;;;;20.52;7.30;;;;;;;;;;5004099;28;20468;-66
2022/09/15 08:31:00;;;;;;;15.10;7.28;;;;;;;;;;5003636;28;20037;-67
2022/09/15 08:33:26;;;;;;;27.42;8.00;;;;;;;;;;5006899;28;20085;-67
2022/09/15 08:35:53;;;;;;;18.42;6.63;;;;;;;;;;5004886;28;20050;-67
2022/09/15 08:38:19;;;;;;;13.68;7.15;;;;;;;;;;5005736;28;20117;-67
2022/09/15 08:40:46;;;;;;;12.98;7.43;;;;;;;;;;5000962;28;20021;-67
2022/09/15 08:43:15;;;;;;;14.00;6.75;;;;;;;;;;4999177;28;20026;-67
2022/09/15 08:45:47;;;;;;;23.38;7.10;;;;;;;;;;5004698;28;20020;-67
2022/09/15 08:48:14;;;;;;;20.33;8.93;;;;;;;;;;5001441;28;20060;-67
2022/09/15 08:50:43;;;;;;;14.80;6.45;;;;;;;;;;5006377;28;20038;-67
2022/09/15 08:53:14;;;;;;;11.75;6.55;;;;;;;;;;5002397;28;20049;-67
2022/09/15 08:55:44;;;;;;;13.93;6.17;;;;;;;;;;5001541;28;20030;-67
2022/09/15 08:58:13;;;;;;;21.13;7.45;;;;;;;;;;4996795;28;20497;-67
2022/09/15 09:00:40;;;;;;;19.55;6.50;;;;;;;;;;5006449;28;20026;-67
2022/09/15 09:03:26;;;;;;;16.75;6.95;;;;;;;;;;5011430;28;20082;-67
2022/09/15 09:05:52;;;;;;;21.63;7.03;;;;;;;;;;5003838;28;20022;-67
2022/09/15 09:08:36;;;;;;;23.10;6.40;;;;;;;;;;5011983;28;20029;-64
2022/09/15 09:11:06;;;;;;;13.45;6.50;;;;;;;;;;5005836;28;20538;-66
2022/09/15 09:13:35;;;;;;;21.60;6.60;;;;;;;;;;5003709;28;20123;-67
2022/09/15 09:16:17;;;;;;;13.02;6.82;;;;;;;;;;5004901;28;20026;-67
2022/09/15 09:18:45;;;;;;;12.05;5.60;;;;;;;;;;5008147;28;20085;-67
2022/09/15 09:21:11;;;;;;;16.58;6.72;;;;;;;;;;5004261;28;20030;-67
2022/09/15 09:23:47;;;;;;;15.48;6.95;;;;;;;;;;5004142;28;20795;-66
2022/09/15 09:26:14;;;;;;;15.35;6.13;;;;;;;;;;5004493;28;20021;-67
2022/09/15 09:28:53;;;;;;;12.40;7.03;;;;;;;;;;5006669;28;20052;-67
2022/09/15 09:31:21;;;;;;;12.40;5.95;;;;;;;;;;5004864;28;20042;-67
2022/09/15 09:34:06;;;;;;;10.32;6.20;;;;;;;;;;5007007;28;20490;-67
2022/09/15 09:36:32;;;;;;;10.98;5.80;;;;;;;;;;5003028;28;20057;-66
2022/09/15 09:39:02;;;;;;;12.13;5.68;;;;;;;;;;5004591;28;20109;-67
2022/09/15 09:41:35;;;;;;;10.90;6.55;;;;;;;;;;4999718;28;20380;-67
2022/09/15 09:44:05;;;;;;;17.30;6.57;;;;;;;;;;5007567;28;20458;-67
2022/09/15 09:46:31;;;;;;;13.82;6.68;;;;;;;;;;5005083;28;20030;-67
2022/09/15 09:49:10;;;;;;;8.88;5.95;;;;;;;;;;5004494;28;20034;-67
2022/09/15 09:51:38;;;;;;;16.13;5.90;;;;;;;;;;5000230;28;20034;-66
2022/09/15 09:54:05;;;;;;;11.93;5.82;;;;;;;;;;5006288;28;20014;-67
2022/09/15 09:56:32;;;;;;;11.98;5.45;;;;;;;;;;5000866;28;20088;-67
2022/09/15 09:58:58;;;;;;;10.55;4.30;;;;;;;;;;5013258;28;20026;-67
2022/09/15 10:01:26;;;;;;;8.05;3.67;;;;;;;;;;5005314;28;20026;-67
2022/09/15 10:04:12;;;;;;;10.70;3.90;;;;;;;;;;5004541;28;20030;-67
2022/09/15 10:06:39;;;;;;;9.18;2.88;;;;;;;;;;5006642;28;20498;-66
2022/09/15 10:09:13;;;;;;;8.45;2.90;;;;;;;;;;5009072;28;20025;-66
2022/09/15 10:11:39;;;;;;;10.52;2.67;;;;;;;;;;5001739;28;20121;-66
2022/09/15 10:14:05;;;;;;;8.13;3.40;;;;;;;;;;5007625;28;20044;-67
2022/09/15 10:16:32;;;;;;;11.18;2.47;;;;;;;;;;5018742;28;20033;-66
2022/09/15 10:18:58;;;;;;;5.90;2.50;;;;;;;;;;5002975;28;20117;-67
2022/09/15 10:21:25;;;;;;;8.40;2.38;;;;;;;;;;5001553;28;20026;-66
2022/09/15 10:23:51;;;;;;;5.72;2.05;;;;;;;;;;5008399;28;20034;-66
2022/09/15 10:26:17;;;;;;;8.40;2.22;;;;;;;;;;5004518;28;20394;-66
2022/09/15 10:28:44;;;;;;;5.03;2.03;;;;;;;;;;5004719;28;20490;-67
2022/09/15 10:31:25;;;;;;;7.35;2.38;;;;;;;;;;5016007;28;20042;-67
2022/09/15 10:33:51;;;;;;;6.75;2.60;;;;;;;;;;5008663;28;20040;-67
2022/09/15 10:36:19;;;;;;;7.38;2.92;;;;;;;;;;5006299;28;20033;-67
2022/09/15 10:38:47;;;;;;;8.13;3.05;;;;;;;;;;5002382;28;20041;-67
2022/09/15 10:41:25;;;;;;;10.25;2.90;;;;;;;;;;5011361;28;20475;-67
2022/09/15 10:44:10;;;;;;;9.30;3.00;;;;;;;;;;5012938;28;20076;-67
2022/09/15 10:46:36;;;;;;;7.03;2.78;;;;;;;;;;5002928;28;20356;-67
2022/09/15 10:49:11;;;;;;;13.18;2.92;;;;;;;;;;5007035;28;20029;-67
2022/09/15 10:51:37;;;;;;;7.65;2.42;;;;;;;;;;5002509;28;20022;-67
2022/09/15 10:54:12;;;;;;;4.72;2.63;;;;;;;;;;4999545;28;20018;-67
2022/09/15 10:56:41;;;;;;;5.03;2.30;;;;;;;;;;5003459;28;20042;-67
2022/09/15 10:59:20;;;;;;;5.43;2.60;;;;;;;;;;5008173;28;20034;-67
2022/09/15 11:01:47;;;;;;;10.05;2.50;;;;;;;;;;5002896;28;20045;-67
2022/09/15 11:04:28;;;;;;;5.40;2.53;;;;;;;;;;5005216;28;20022;-67
2022/09/15 11:07:03;;;;;;;9.25;1.95;;;;;;;;;;5003790;28;20026;-67
2022/09/15 11:09:41;;;;;;;8.85;2.33;;;;;;;;;;5006946;28;20042;-67
2022/09/15 11:12:17;;;;;;;6.80;2.90;;;;;;;;;;4994071;28;20042;-67
2022/09/15 11:14:50;;;;;;;8.10;2.67;;;;;;;;;;5008745;28;20030;-67
2022/09/15 11:17:16;;;;;;;;;;;;;;;;;;5002964;28;20042;-67
2022/09/15 11:19:45;;;;;;;7.28;2.63;;;;;;;;;;5007906;28;19917;-67
2022/09/15 11:22:14;;;;;;;6.20;2.70;;;;;;;;;;5011232;28;20038;-67
2022/09/15 11:24:40;;;;;;;5.57;2.75;;;;;;;;;;5002140;28;20510;-67
2022/09/15 11:27:16;;;;;;;10.60;2.65;;;;;;;;;;5008421;28;20046;-67
2022/09/15 11:29:42;;;;;;;7.65;2.65;;;;;;;;;;5008644;28;20038;-67
2022/09/15 11:32:14;;;;;;;8.50;3.67;;;;;;;;;;5002298;28;20060;-67
2022/09/15 11:34:43;;;;;;;10.05;3.00;;;;;;;;;;5005108;28;20038;-67
2022/09/15 11:37:15;;;;;;;5.25;3.00;;;;;;;;;;5004390;28;20033;-67
2022/09/15 11:39:52;;;;;;;5.15;2.40;;;;;;;;;;5007312;28;20010;-67
2022/09/15 11:42:24;;;;;;;7.93;3.33;;;;;;;;;;5009167;28;20079;-67
2022/09/15 11:44:50;;;;;;;8.50;2.90;;;;;;;;;;5001244;28;20193;-67
2022/09/15 11:47:19;;;;;;;8.68;3.78;;;;;;;;;;5003633;28;20080;-67
2022/09/15 11:50:00;;;;;;;9.30;3.65;;;;;;;;;;5000777;28;20509;-67
2022/09/15 11:52:29;;;;;;;12.75;3.80;;;;;;;;;;5004704;28;20483;-67
2022/09/15 11:55:14;;;;;;;9.88;3.10;;;;;;;;;;4999481;28;20070;-67
2022/09/15 11:57:59;;;;;;;8.82;4.03;;;;;;;;;;4994214;28;20089;-67
2022/09/15 12:00:25;;;;;;;8.30;3.20;;;;;;;;;;5005208;28;20030;-67
2022/09/15 12:03:05;;;;;;;9.48;3.10;;;;;;;;;;5007517;28;20042;-67
2022/09/15 12:06:10;;;;;;;11.00;3.47;;;;;;;;;;5004473;28;20454;-67
2022/09/15 12:08:40;;;;;;;11.52;2.75;;;;;;;;;;5024418;28;20025;-67
2022/09/15 12:11:09;;;;;;;6.60;3.88;;;;;;;;;;5017037;28;20101;-67
2022/09/15 12:13:35;;;;;;;11.45;3.38;;;;;;;;;;5022302;28;20115;-67
2022/09/15 12:16:02;;;;;;;10.93;3.25;;;;;;;;;;5027560;28;20033;-67
2022/09/15 12:18:41;;;;;;;8.65;3.40;;;;;;;;;;5028302;28;20018;-67
2022/09/15 12:21:11;;;;;;;11.50;3.90;;;;;;;;;;5004564;28;20391;-67
2022/09/15 12:23:42;;;;;;;10.23;3.60;;;;;;;;;;5027046;28;20047;-67
2022/09/15 12:26:22;;;;;;;8.68;3.45;;;;;;;;;;5026696;28;20065;-67
2022/09/15 12:28:53;;;;;;;11.02;3.78;;;;;;;;;;5028362;28;20045;-67
2022/09/15 12:31:22;;;;;;;6.80;2.78;;;;;;;;;;5025855;28;20033;-67
2022/09/15 12:34:02;;;;;;;10.43;3.53;;;;;;;;;;5015871;28;20041;-67
2022/09/15 12:36:40;;;;;;;9.82;2.50;;;;;;;;;;5028581;28;20021;-67
2022/09/15 12:39:20;;;;;;;9.85;3.55;;;;;;;;;;5017339;28;20502;-67
2022/09/15 12:41:54;;;;;;;8.50;2.75;;;;;;;;;;4999787;28;20474;-67
2022/09/15 12:44:24;;;;;;;10.10;2.47;;;;;;;;;;5002137;28;20035;-67
2022/09/15 12:46:50;;;;;;;8.20;2.70;;;;;;;;;;4999679;28;20022;-67
2022/09/15 12:49:19;;;;;;;8.60;2.42;;;;;;;;;;5008273;28;20025;-67
2022/09/15 12:51:49;;;;;;;8.38;2.47;;;;;;;;;;4995799;28;20106;-67
2022/09/15 12:54:22;;;;;;;12.40;3.00;;;;;;;;;;5001532;28;20057;-67
2022/09/15 12:56:48;;;;;;;;;;;;;;;;;;5001220;28;20114;-67
2022/09/15 12:59:15;;;;;;;8.40;2.35;;;;;;;;;;4996003;28;19992;-67
2022/09/15 13:01:48;;;;;;;11.50;2.95;;;;;;;;;;5003911;28;20081;-67
2022/09/15 13:04:24;;;;;;;15.27;2.90;;;;;;;;;;5010126;28;20505;-67
2022/09/15 13:07:08;;;;;;;9.27;2.92;;;;;;;;;;4999240;28;20552;-67
2022/09/15 13:09:43;;;;;;;8.48;2.53;;;;;;;;;;4996248;28;20042;-67
2022/09/15 13:12:09;;;;;;;7.03;2.65;;;;;;;;;;5000957;28;20035;-67
2022/09/15 13:14:40;;;;;;;11.77;2.60;;;;;;;;;;4999810;28;20033;-67
2022/09/15 13:17:12;;;;;;;8.98;2.30;;;;;;;;;;5002193;28;20038;-67
2022/09/15 13:19:41;;;;;;;8.35;2.40;;;;;;;;;;5002444;28;20125;-67
2022/09/15 13:22:23;;;;;;;5.97;2.50;;;;;;;;;;4996212;28;20038;-67
2022/09/15 13:24:59;;;;;;;5.03;2.22;;;;;;;;;;5001196;28;20042;-67
2022/09/15 13:27:27;;;;;;;7.28;1.77;;;;;;;;;;5013933;28;20106;-67
2022/09/15 13:29:56;;;;;;;6.57;2.10;;;;;;;;;;5002813;28;20457;-67
2022/09/15 13:32:32;;;;;;;5.68;1.98;;;;;;;;;;5000176;28;20042;-67
2022/09/15 13:35:18;;;;;;;8.23;1.73;;;;;;;;;;5002505;28;20029;-67
2022/09/15 13:37:50;;;;;;;9.35;2.30;;;;;;;;;;5004930;28;20034;-67
2022/09/15 13:40:35;;;;;;;6.13;1.92;;;;;;;;;;4996893;28;20414;-67
2022/09/15 13:43:20;;;;;;;7.50;2.00;;;;;;;;;;4994261;28;20032;-67
2022/09/15 13:46:02;;;;;;;8.02;1.77;;;;;;;;;;4997825;28;20033;-67
2022/09/15 13:48:48;;;;;;;6.20;2.15;;;;;;;;;;5001350;28;20031;-67
2022/09/15 13:51:18;;;;;;;16.08;2.97;;;;;;;;;;5001198;28;20042;-67
2022/09/15 13:53:44;;;;;;;6.93;2.13;;;;;;;;;;5004251;28;20025;-67
2022/09/15 13:56:18;;;;;;;7.82;2.20;;;;;;;;;;5003701;28;20022;-67
2022/09/15 13:58:44;;;;;;;6.63;1.73;;;;;;;;;;5004633;28;20529;-67
2022/09/15 14:01:11;;;;;;;4.18;1.70;;;;;;;;;;5002676;28;20153;-67
2022/09/15 14:03:46;;;;;;;9.75;2.25;;;;;;;;;;5012998;28;20029;-67
2022/09/15 14:06:14;;;;;;;8.50;2.17;;;;;;;;;;5003477;28;20064;-67
2022/09/15 14:08:41;;;;;;;10.90;2.50;;;;;;;;;;5005916;28;20022;-67
2022/09/15 14:11:10;;;;;;;4.68;1.48;;;;;;;;;;5006589;28;20406;-67
2022/09/15 14:13:37;;;;;;;4.78;1.88;;;;;;;;;;5011588;28;20104;-67
2022/09/15 14:16:05;;;;;;;7.28;2.10;;;;;;;;;;5012110;28;20018;-67
2022/09/15 14:18:42;;;;;;;6.18;1.70;;;;;;;;;;5006357;28;20046;-67
2022/09/15 14:21:22;;;;;;;6.90;2.03;;;;;;;;;;5010985;28;20033;-67
2022/09/15 14:23:50;;;;;;;5.05;2.00;;;;;;;;;;5007407;28;20387;-67
2022/09/15 14:26:17;;;;;;;5.43;1.40;;;;;;;;;;5003593;28;20029;-67
2022/09/15 14:28:48;;;;;;;8.65;2.10;;;;;;;;;;5011543;28;20032;-67
2022/09/15 14:31:15;;;;;;;3.40;1.80;;;;;;;;;;5009384;28;20026;-67
2022/09/15 14:33:41;;;;;;;6.35;1.95;;;;;;;;;;5004044;28;20104;-67
2022/09/15 14:36:33;;;;;;;5.15;1.80;;;;;;;;;;5012776;28;20128;-67
2022/09/15 14:39:07;;;;;;;6.93;1.60;;;;;;;;;;5008282;28;20049;-67
2022/09/15 14:41:35;;;;;;;6.57;1.48;;;;;;;;;;5000008;28;20038;-67
2022/09/15 14:44:01;;;;;;;4.28;1.40;;;;;;;;;;5005742;28;20014;-67